TDA weather

Trinidad Airport
Trinidad, Casanare Department, Colombia

Public forecast

Using degrees Celsius for public forecast. Weather courtesy of forecast.io.

METAR (pilot weather report)

Report is more than 6 hours old.

Closest report is El Yopal Airport, 43.7 nm (80.9 km) W. Retrieved 2019/02/11 00:00 UTC (12 days ago):

SKYP 110000Z 06011KT 9000 NSC 29/15 A2982 RMK HZ

TAF (pilot weather forecast)

Forecast is more than 12 hours old.

Closest forecast is Palonegro Airport, 136.4 nm (252.5 km) NW. Retrieved 2019/02/22 06:00 UTC (1 day ago):

TAF SKBG 220500Z 2206/2306 VRB02KT 9999 FEW015 SCT070 BECMG 2207/2209 16012KT PROB40 TEMPO 2210/2212 5000 BCFG SCT015 SCT070 BECMG 2215/2217 34014KT TX28/2219Z TN18/2211Z